This is the latest recevied weather packets stored in our database for station/object KC3WWU. If no packets are shown the sender has not sent any weather packets the latest 1 day(s).
| Time | Temp. | Humidity | Pressure | Rain* | Wind** | Luminosity | Snow |
|---|---|---|---|---|---|---|---|
| 1778049079 | 13.89° C | 85% | 1007 hPa | 0 mm | - | 0 W/m² | - |
| 1778047868 | 14.44° C | 81% | 1007 hPa | 0 mm | - | 0 W/m² | - |
| 1778046960 | 14.44° C | 78% | 1007 hPa | 0 mm | - | 0 W/m² | - |
| 1778046657 | 15.56° C | 76% | 1007.1 hPa | 0 mm | - | 0 W/m² | - |
| 1778046354 | 15.56° C | 73% | 1006.8 hPa | 0 mm | - | 0 W/m² | - |
| 1778046049 | 16.11° C | 70% | 1007 hPa | 0 mm | - | 0 W/m² | - |
| 1778045446 | 17.78° C | 59% | 1006.8 hPa | 0 mm | - | 0 W/m² | - |
| 1778044841 | 17.22° C | 59% | 1006.6 hPa | 0 mm | - | 0 W/m² | - |
| 1778044538 | 17.22° C | 62% | 1006.9 hPa | 0 mm | - | 0 W/m² | - |
| 1778043630 | 16.67° C | 62% | 1006.7 hPa | 0 mm | - | 0 W/m² | - |
| 1778043326 | 16.67° C | 62% | 1007 hPa | 0 mm | - | 0 W/m² | - |
| 1778043023 | 16.67° C | 64% | 1006.7 hPa | 0 mm | - | 0 W/m² | - |
| 1778042721 | 16.67° C | 64% | 1006.8 hPa | 0 mm | - | 0 W/m² | - |
| 1778042418 | 16.11° C | 64% | 1006.7 hPa | 0 mm | - | 0 W/m² | - |
| 1778041512 | 16.67° C | 66% | 1006.8 hPa | 0 mm | - | 0 W/m² | - |
| 1778040908 | 16.11° C | 67% | 1006.7 hPa | 0 mm | - | 0 W/m² | - |
| 1778039695 | 15° C | 74% | 1006.8 hPa | 0 mm | - | 0 W/m² | - |
| 1778039391 | 14.44° C | 77% | 1006.7 hPa | 0 mm | - | 0 W/m² | - |
| 1778039089 | 15° C | 76% | 1006.7 hPa | 0 mm | - | 0 W/m² | - |
| 1778038786 | 14.44° C | 76% | 1007 hPa | 0 mm | - | 0 W/m² | - |
| 1778038180 | 14.44° C | 77% | 1006.9 hPa | 0 mm | - | 0 W/m² | - |
| 1778037877 | 13.89° C | 79% | 1006.9 hPa | 0 mm | - | 0 W/m² | - |
| 1778037573 | 13.89° C | 80% | 1006.9 hPa | 0 mm | - | 0 W/m² | - |
| 1778037271 | 14.44° C | 77% | 1006.7 hPa | 0 mm | - | 0 W/m² | - |
| 1778036969 | 14.44° C | 79% | 1006.6 hPa | 0 mm | - | 0 W/m² | - |
* Rain latest hour (hover to see other rain measurements)
** Current wind speed in m/s (hover to see current wind gust speed)